Time;durP1;ratioP1;P1;durP2;ratioP2;P2;SDS_P1;SDS_P2;PMS_P1;PMS_P2;Temp;Humidity;BMP_temperature;BMP_pressure;BME280_temperature;BME280_humidity;BME280_pressure;Samples;Min_cycle;Max_cycle;Signal;HPM_P1;HPM_P2
2022/01/16 00:04:36;;;;;;;20.17;11.53;;;3.00;46.70;;;;;;5032667;28;21062;-61
2022/01/16 00:07:05;;;;;;;21.50;12.13;;;3.10;44.40;;;;;;5032209;28;20492;-59
2022/01/16 00:09:32;;;;;;;20.83;11.27;;;3.10;43.00;;;;;;5032367;28;20750;-61
2022/01/16 00:12:00;;;;;;;19.50;11.13;;;3.10;40.90;;;;;;5032493;28;20212;-61
2022/01/16 00:14:28;;;;;;;19.20;9.97;;;3.10;38.40;;;;;;5032428;28;20317;-61
2022/01/16 00:16:55;;;;;;;16.10;9.47;;;3.10;33.40;;;;;;5032041;28;20205;-61
2022/01/16 00:19:21;;;;;;;18.93;9.97;;;3.10;27.40;;;;;;5032451;28;20252;-60
2022/01/16 00:21:48;;;;;;;18.43;9.33;;;3.00;23.40;;;;;;5032602;28;20838;-61
2022/01/16 00:24:16;;;;;;;17.90;10.13;;;2.90;21.50;;;;;;5032268;28;20198;-61
2022/01/16 00:26:43;;;;;;;17.27;9.47;;;2.90;20.20;;;;;;5032325;28;20487;-60
2022/01/16 00:29:12;;;;;;;18.20;9.87;;;2.70;14.70;;;;;;5031985;28;20452;-60
2022/01/16 00:31:40;;;;;;;17.10;10.20;;;2.80;16.80;;;;;;5032112;28;20445;-60
2022/01/16 00:34:08;;;;;;;17.27;10.03;;;2.80;17.70;;;;;;5031850;28;20484;-61
2022/01/16 00:36:34;;;;;;;17.63;9.83;;;2.70;16.60;;;;;;5032226;28;20441;-61
2022/01/16 00:39:02;;;;;;;22.47;10.60;;;2.60;16.00;;;;;;5031951;28;20445;-60
2022/01/16 00:41:30;;;;;;;20.07;10.20;;;2.60;17.10;;;;;;5031986;28;20480;-60
2022/01/16 00:43:57;;;;;;;21.07;10.90;;;2.50;18.10;;;;;;5032147;28;20817;-61
2022/01/16 00:46:24;;;;;;;17.87;9.43;;;2.30;20.40;;;;;;5032227;28;20519;-61
2022/01/16 00:48:50;;;;;;;17.20;9.30;;;2.40;26.60;;;;;;5032527;28;20473;-61
2022/01/16 00:51:17;;;;;;;19.57;10.13;;;2.50;31.30;;;;;;5032177;28;20469;-60
2022/01/16 00:53:45;;;;;;;23.77;10.23;;;2.50;33.90;;;;;;5032218;28;20449;-61
2022/01/16 00:56:12;;;;;;;17.33;9.63;;;2.50;34.90;;;;;;5031860;28;20449;-61
2022/01/16 00:58:40;;;;;;;18.80;10.17;;;2.50;35.50;;;;;;5031939;28;20453;-60
2022/01/16 01:01:08;;;;;;;18.17;9.90;;;2.60;35.80;;;;;;5031697;28;20499;-60
2022/01/16 01:03:34;;;;;;;21.83;10.60;;;2.60;35.10;;;;;;5031774;28;20453;-59
2022/01/16 01:06:01;;;;;;;21.03;10.23;;;2.60;33.10;;;;;;5031685;28;20514;-61
2022/01/16 01:08:29;;;;;;;21.00;11.23;;;2.60;30.50;;;;;;5031850;28;20798;-61
2022/01/16 01:10:57;;;;;;;18.37;10.03;;;2.60;28.90;;;;;;5031559;28;20902;-61
2022/01/16 01:13:32;;;;;;;17.67;9.07;;;2.50;26.70;;;;;;5031567;28;20469;-61
2022/01/16 01:16:03;;;;;;;20.10;10.33;;;2.40;26.20;;;;;;5031471;28;20578;-61
2022/01/16 01:18:31;;;;;;;14.97;8.50;;;2.40;28.00;;;;;;5031803;28;20453;-61
2022/01/16 01:20:59;;;;;;;18.80;8.60;;;2.40;28.80;;;;;;5031391;28;20563;-60
2022/01/16 01:23:26;;;;;;;17.70;8.70;;;2.40;27.40;;;;;;5031229;28;20480;-60
2022/01/16 01:25:53;;;;;;;19.93;9.30;;;2.30;24.90;;;;;;5031145;28;20445;-61
2022/01/16 01:28:20;;;;;;;18.43;9.40;;;2.20;25.00;;;;;;5031215;28;20453;-61
2022/01/16 01:30:46;;;;;;;21.23;10.90;;;2.20;27.30;;;;;;5031204;28;20473;-60
2022/01/16 01:33:18;;;;;;;20.20;10.67;;;2.20;31.00;;;;;;5031067;28;20464;-61
2022/01/16 01:35:45;;;;;;;19.53;10.03;;;2.30;34.50;;;;;;5031149;28;21013;-61
2022/01/16 01:38:12;;;;;;;19.37;10.13;;;2.30;36.10;;;;;;5031386;28;20576;-62
2022/01/16 01:40:40;;;;;;;18.70;10.97;;;2.30;36.70;;;;;;5031422;28;20469;-61
2022/01/16 01:51:23;;;;;;;26.47;12.97;;;2.20;34.50;;;;;;5031295;28;20451;-61
2022/01/16 01:53:53;;;;;;;25.83;13.10;;;2.10;35.00;;;;;;5031528;28;20441;-60
2022/01/16 01:56:22;;;;;;;28.30;13.73;;;2.20;38.30;;;;;;5031210;28;20844;-61
2022/01/16 01:58:49;;;;;;;26.97;12.50;;;2.20;40.00;;;;;;5030990;28;20449;-61
2022/01/16 02:01:16;;;;;;;24.47;12.60;;;2.20;41.40;;;;;;5030990;28;20518;-61
2022/01/16 02:03:44;;;;;;;27.77;12.73;;;2.20;41.00;;;;;;5030756;28;20445;-61
2022/01/16 02:06:14;;;;;;;28.50;13.43;;;2.10;41.60;;;;;;5031106;28;20455;-60
2022/01/16 02:08:43;;;;;;;27.77;12.83;;;2.10;43.40;;;;;;5030952;28;20444;-60
2022/01/16 02:11:12;;;;;;;25.93;12.57;;;2.00;47.20;;;;;;5030680;28;20493;-61
2022/01/16 02:13:48;;;;;;;29.00;12.97;;;1.90;48.70;;;;;;5030407;28;20449;-61
2022/01/16 02:30:40;;;;;;;26.77;13.37;;;1.80;62.30;;;;;;5034207;28;20449;-61
2022/01/16 02:33:23;;;;;;;29.97;13.47;;;1.80;62.40;;;;;;5034460;28;20452;-61
2022/01/16 02:35:52;;;;;;;32.93;15.27;;;1.80;61.00;;;;;;5034286;28;20542;-59
2022/01/16 02:38:18;;;;;;;31.10;14.13;;;1.80;61.70;;;;;;5034310;28;20471;-61
2022/01/16 02:40:52;;;;;;;30.90;14.10;;;1.80;60.60;;;;;;5034026;28;20464;-62
2022/01/16 02:43:28;;;;;;;29.27;15.87;;;1.90;59.70;;;;;;5034025;28;20449;-61
2022/01/16 02:46:10;;;;;;;35.43;15.87;;;1.90;59.10;;;;;;5034200;28;20453;-60
2022/01/16 02:48:36;;;;;;;31.43;14.80;;;1.80;57.30;;;;;;5033843;28;21082;-59
2022/01/16 02:51:03;;;;;;;35.83;15.93;;;1.80;55.60;;;;;;5034089;28;20469;-59
2022/01/16 02:53:30;;;;;;;31.90;15.30;;;1.80;55.70;;;;;;5033915;28;20836;-62
2022/01/16 02:56:00;;;;;;;42.20;18.10;;;1.80;55.00;;;;;;5033681;28;20534;-61
2022/01/16 02:58:26;;;;;;;33.40;15.33;;;1.80;55.10;;;;;;5034134;28;20569;-61
2022/01/16 03:00:53;;;;;;;40.47;18.10;;;1.80;55.90;;;;;;5033832;28;20473;-61
2022/01/16 03:03:20;;;;;;;38.50;17.30;;;1.80;57.60;;;;;;5033557;28;20457;-61
2022/01/16 03:05:49;;;;;;;40.03;16.90;;;1.80;58.90;;;;;;5033733;28;20445;-62
2022/01/16 03:08:15;;;;;;;40.33;16.60;;;1.80;60.80;;;;;;5033634;28;20452;-62
2022/01/16 03:11:05;;;;;;;47.87;20.90;;;1.90;61.40;;;;;;5033983;28;20473;-62
2022/01/16 03:13:33;;;;;;;47.13;19.90;;;1.90;60.50;;;;;;5034275;28;20464;-59
2022/01/16 03:16:01;;;;;;;46.97;22.07;;;1.80;59.40;;;;;;5033683;28;20495;-58
2022/01/16 03:23:56;;;;;;;46.60;21.43;;;1.80;58.20;;;;;;5033710;28;20440;-58
2022/01/16 03:26:22;;;;;;;54.63;23.80;;;1.90;58.00;;;;;;5033160;28;20479;-60
2022/01/16 03:28:50;;;;;;;48.07;21.30;;;1.80;56.20;;;;;;5033380;28;20453;-59
2022/01/16 03:31:17;;;;;;;48.07;22.13;;;1.90;55.40;;;;;;5032878;28;20472;-60
2022/01/16 03:33:43;;;;;;;52.83;22.97;;;1.90;54.50;;;;;;5033541;28;20448;-59
2022/01/16 03:36:10;;;;;;;46.20;22.67;;;1.90;53.00;;;;;;5033228;28;20487;-60
2022/01/16 03:38:37;;;;;;;52.03;24.50;;;1.90;50.30;;;;;;5031995;28;20457;-59
2022/01/16 03:41:04;;;;;;;54.87;24.73;;;1.90;47.00;;;;;;5032837;28;20530;-58
2022/01/16 03:43:31;;;;;;;53.93;26.13;;;1.90;42.90;;;;;;5032829;28;20449;-59
2022/01/16 03:45:59;;;;;;;53.03;23.47;;;1.90;40.50;;;;;;5032769;28;20445;-58
2022/01/16 03:48:26;;;;;;;55.83;23.50;;;2.00;39.40;;;;;;5032982;28;20496;-58
2022/01/16 03:50:53;;;;;;;53.80;23.30;;;1.90;36.50;;;;;;5033004;28;20539;-60
2022/01/16 03:53:20;;;;;;;53.73;24.57;;;1.90;33.70;;;;;;5032900;28;20499;-58
2022/01/16 03:55:47;;;;;;;49.60;25.53;;;2.00;33.80;;;;;;5033764;28;20481;-58
2022/01/16 03:58:13;;;;;;;55.33;24.27;;;1.90;30.90;;;;;;5032837;28;20472;-58
2022/01/16 04:00:40;;;;;;;52.87;24.77;;;1.90;30.30;;;;;;5032257;28;20477;-59
2022/01/16 04:03:08;;;;;;;53.50;25.77;;;1.90;29.80;;;;;;5032655;28;20452;-60
2022/01/16 04:05:35;;;;;;;43.73;21.17;;;1.90;29.80;;;;;;5032802;28;20985;-60
2022/01/16 04:08:02;;;;;;;51.60;23.53;;;1.90;31.40;;;;;;5032589;28;20832;-59
2022/01/16 04:10:29;;;;;;;59.83;28.63;;;1.90;33.10;;;;;;5032460;28;20477;-58
2022/01/16 04:12:56;;;;;;;54.27;25.63;;;1.90;34.70;;;;;;5032181;28;20827;-57
2022/01/16 04:15:35;;;;;;;55.43;25.20;;;1.90;35.90;;;;;;5032203;28;20497;-59
2022/01/16 04:18:05;;;;;;;55.63;26.33;;;1.90;36.70;;;;;;5032025;28;20459;-58
2022/01/16 04:20:34;;;;;;;58.80;27.03;;;1.90;37.90;;;;;;5032310;28;20480;-59
2022/01/16 04:23:01;;;;;;;50.03;23.73;;;1.90;38.60;;;;;;5032040;28;20452;-59
2022/01/16 04:25:28;;;;;;;55.87;25.60;;;2.00;40.40;;;;;;5032038;28;20488;-56
2022/01/16 04:27:54;;;;;;;54.53;26.40;;;2.00;40.70;;;;;;5031766;28;20453;-59
2022/01/16 04:30:21;;;;;;;65.90;28.07;;;2.00;41.80;;;;;;5032190;28;20495;-59
2022/01/16 04:32:48;;;;;;;54.47;26.43;;;2.00;43.30;;;;;;5032175;28;20877;-60
2022/01/16 04:35:15;;;;;;;55.77;24.13;;;2.00;44.90;;;;;;5032189;28;20481;-60
2022/01/16 04:37:43;;;;;;;56.47;25.73;;;2.10;45.70;;;;;;5031788;28;21010;-60
2022/01/16 04:40:11;;;;;;;59.73;26.47;;;2.10;43.90;;;;;;5031888;28;20851;-59
2022/01/16 04:45:22;;;;;;;57.90;24.87;;;2.20;43.60;;;;;;5031900;28;20432;-59
2022/01/16 04:47:50;;;;;;;54.70;23.30;;;2.20;41.20;;;;;;5031881;28;20453;-61
2022/01/16 04:50:17;;;;;;;56.73;26.87;;;2.20;40.00;;;;;;5031939;28;20473;-60
2022/01/16 04:52:45;;;;;;;47.23;22.93;;;2.20;36.70;;;;;;5032085;28;20456;-60
2022/01/16 04:55:13;;;;;;;56.70;27.13;;;2.20;34.20;;;;;;5032337;28;20523;-64
2022/01/16 04:57:41;;;;;;;58.77;25.93;;;2.30;33.00;;;;;;5032055;28;20453;-60
2022/01/16 05:00:10;;;;;;;65.33;28.50;;;2.30;30.80;;;;;;5031598;28;20538;-58
2022/01/16 05:02:37;;;;;;;55.17;25.17;;;2.30;27.70;;;;;;5031475;28;20923;-60
2022/01/16 05:05:05;;;;;;;64.23;28.20;;;2.30;28.30;;;;;;5031432;28;20457;-60
2022/01/16 05:07:32;;;;;;;60.90;28.80;;;2.20;24.10;;;;;;5031651;28;20534;-60
2022/01/16 05:10:00;;;;;;;66.00;29.33;;;2.10;23.40;;;;;;5032055;28;20480;-61
2022/01/16 05:12:32;;;;;;;65.57;29.23;;;2.20;25.60;;;;;;5031622;28;20445;-60
2022/01/16 05:17:44;;;;;;;56.83;25.50;;;2.20;25.10;;;;;;5031642;28;20643;-60
2022/01/16 05:20:12;;;;;;;58.33;26.80;;;2.20;23.20;;;;;;5032096;28;20473;-60
2022/01/16 05:22:39;;;;;;;70.60;28.87;;;2.20;22.90;;;;;;5031725;28;20867;-60
2022/01/16 05:25:11;;;;;;;59.57;28.33;;;2.20;22.40;;;;;;5031437;28;20457;-59
2022/01/16 05:27:37;;;;;;;64.50;27.97;;;2.30;23.10;;;;;;5031587;28;20456;-59
2022/01/16 05:30:05;;;;;;;60.77;27.57;;;2.30;19.60;;;;;;5031057;28;20468;-60
2022/01/16 05:32:32;;;;;;;65.93;28.93;;;2.20;18.20;;;;;;5031171;28;20453;-60
2022/01/16 05:34:58;;;;;;;64.90;29.87;;;2.30;17.00;;;;;;5031425;28;20457;-59
2022/01/16 05:37:25;;;;;;;68.43;29.83;;;2.20;15.70;;;;;;5031335;28;20935;-60
2022/01/16 05:39:52;;;;;;;71.20;30.23;;;2.20;15.10;;;;;;5031170;28;20527;-60
2022/01/16 05:42:20;;;;;;;74.60;32.47;;;2.10;14.10;;;;;;5031226;28;20495;-60
2022/01/16 05:44:46;;;;;;;71.80;29.83;;;2.10;16.90;;;;;;5031186;28;20449;-58
2022/01/16 05:47:13;;;;;;;77.67;31.23;;;2.20;20.30;;;;;;5031329;28;21079;-59
2022/01/16 05:49:42;;;;;;;63.40;27.13;;;2.20;23.10;;;;;;5031298;28;20552;-60
2022/01/16 05:52:08;;;;;;;60.63;26.13;;;2.20;24.00;;;;;;5030909;28;21026;-58
2022/01/16 05:54:36;;;;;;;69.50;30.33;;;2.30;23.90;;;;;;5031098;28;20508;-59
2022/01/16 05:57:03;;;;;;;70.37;30.00;;;2.30;24.20;;;;;;5030611;28;20485;-59
2022/01/16 05:59:31;;;;;;;66.60;28.70;;;2.30;23.90;;;;;;5030969;28;20852;-60
2022/01/16 06:01:57;;;;;;;71.70;32.00;;;2.30;22.60;;;;;;5034135;28;20515;-60
2022/01/16 06:04:24;;;;;;;72.03;30.43;;;2.30;21.00;;;;;;5034967;28;20445;-60
2022/01/16 06:06:51;;;;;;;72.57;30.97;;;2.30;19.60;;;;;;5034684;28;20506;-60
2022/01/16 06:09:17;;;;;;;75.70;31.70;;;2.30;19.80;;;;;;5034800;28;20476;-59
2022/01/16 06:11:44;;;;;;;74.07;31.97;;;2.20;22.50;;;;;;5034828;28;20445;-60
2022/01/16 06:14:10;;;;;;;81.63;35.53;;;2.20;25.30;;;;;;5034575;28;20522;-58
2022/01/16 06:16:38;;;;;;;84.93;34.07;;;2.20;27.10;;;;;;5034981;28;20476;-61
2022/01/16 06:19:05;;;;;;;78.17;34.57;;;2.20;28.90;;;;;;5034732;28;20449;-59
2022/01/16 06:21:32;;;;;;;77.10;33.17;;;2.20;30.70;;;;;;5034700;28;20468;-61
2022/01/16 06:23:58;;;;;;;81.10;33.13;;;2.20;31.80;;;;;;5034626;28;20943;-59
2022/01/16 06:26:25;;;;;;;89.30;36.37;;;2.30;33.40;;;;;;5034124;28;20445;-60
2022/01/16 06:28:52;;;;;;;80.13;35.23;;;2.30;34.10;;;;;;5034498;28;20449;-60
2022/01/16 06:31:18;;;;;;;78.27;34.73;;;2.30;34.60;;;;;;5034246;28;20473;-60
2022/01/16 06:33:46;;;;;;;79.17;36.07;;;2.30;34.60;;;;;;5034501;28;20445;-61
2022/01/16 06:36:13;;;;;;;83.97;36.17;;;2.30;31.50;;;;;;5034600;28;20492;-60
2022/01/16 06:38:40;;;;;;;75.70;35.00;;;2.30;29.70;;;;;;5034484;28;20494;-60
2022/01/16 06:41:07;;;;;;;77.93;35.60;;;2.30;29.00;;;;;;5033872;28;20499;-60
2022/01/16 06:43:34;;;;;;;83.07;36.67;;;2.30;28.50;;;;;;5034545;28;20831;-61
2022/01/16 06:46:00;;;;;;;71.83;31.83;;;2.40;28.00;;;;;;5034167;28;20528;-61
2022/01/16 06:48:27;;;;;;;82.33;32.93;;;2.40;27.90;;;;;;5033949;28;20654;-60
2022/01/16 06:50:56;;;;;;;74.87;33.53;;;2.40;25.40;;;;;;5034134;28;20473;-60
2022/01/16 06:53:23;;;;;;;79.50;35.63;;;2.50;23.60;;;;;;5034053;28;20448;-60
2022/01/16 06:55:49;;;;;;;79.00;35.90;;;2.50;20.20;;;;;;5034834;28;20820;-61
2022/01/16 06:58:16;;;;;;;72.77;35.00;;;2.50;17.30;;;;;;5034533;28;20448;-59
2022/01/16 07:00:43;;;;;;;78.20;32.57;;;2.50;14.50;;;;;;5034119;28;20520;-60
2022/01/16 07:03:10;;;;;;;75.50;35.00;;;2.60;11.90;;;;;;5033958;28;20449;-61
2022/01/16 07:05:37;;;;;;;69.43;35.37;;;2.50;7.00;;;;;;5033886;28;20472;-60
2022/01/16 07:08:05;;;;;;;75.93;34.23;;;2.50;4.10;;;;;;5033627;28;20888;-61
2022/01/16 07:10:32;;;;;;;74.30;34.80;;;2.60;2.80;;;;;;5033903;28;20477;-61
2022/01/16 07:12:59;;;;;;;72.33;32.63;;;2.60;1.10;;;;;;5033902;28;20449;-61
2022/01/16 07:15:25;;;;;;;74.90;35.87;;;2.60;1.00;;;;;;5033866;28;20507;-61
2022/01/16 07:17:52;;;;;;;77.33;33.80;;;2.60;1.00;;;;;;5033702;28;20484;-61
2022/01/16 07:20:19;;;;;;;78.90;34.23;;;2.60;1.00;;;;;;5033637;28;20460;-62
2022/01/16 07:22:46;;;;;;;77.87;35.63;;;2.70;1.00;;;;;;5033598;28;20527;-61
2022/01/16 07:25:15;;;;;;;77.73;34.97;;;2.60;1.00;;;;;;5033741;28;20461;-61
2022/01/16 07:27:42;;;;;;;67.80;32.70;;;2.70;1.00;;;;;;5033717;28;20445;-61
2022/01/16 07:30:09;;;;;;;68.83;34.47;;;2.70;1.00;;;;;;5033700;28;20465;-61
2022/01/16 07:32:36;;;;;;;67.20;33.37;;;2.70;1.00;;;;;;5033510;28;20456;-61
2022/01/16 07:35:03;;;;;;;63.40;30.63;;;2.80;1.00;;;;;;5033585;28;20853;-60
2022/01/16 07:37:30;;;;;;;75.67;36.30;;;2.70;1.00;;;;;;5033237;28;20894;-61
2022/01/16 07:39:57;;;;;;;70.90;36.00;;;2.70;1.00;;;;;;5033425;28;20469;-61
2022/01/16 07:42:25;;;;;;;68.20;35.17;;;2.70;1.00;;;;;;5033251;28;20518;-61
2022/01/16 07:44:52;;;;;;;73.23;33.73;;;2.70;1.00;;;;;;5033272;28;20887;-60
2022/01/16 07:47:19;;;;;;;75.50;34.73;;;2.70;1.00;;;;;;5032933;28;20804;-62
2022/01/16 07:49:45;;;;;;;72.10;34.37;;;2.70;1.00;;;;;;5032974;28;20488;-59
2022/01/16 07:52:12;;;;;;;69.20;33.03;;;2.70;1.00;;;;;;5033203;28;20968;-60
2022/01/16 07:54:39;;;;;;;68.60;33.37;;;2.70;1.00;;;;;;5032988;28;20828;-60
2022/01/16 07:57:06;;;;;;;79.33;34.97;;;2.70;1.00;;;;;;5032953;28;20485;-60
2022/01/16 07:59:34;;;;;;;70.37;33.70;;;2.70;1.00;;;;;;5032942;28;20468;-61
2022/01/16 08:02:01;;;;;;;70.83;33.07;;;2.70;1.00;;;;;;5033150;28;20494;-61
2022/01/16 08:04:27;;;;;;;68.63;33.00;;;2.70;1.00;;;;;;5032686;28;20514;-61
2022/01/16 08:06:54;;;;;;;71.33;32.87;;;2.80;1.00;;;;;;5032881;28;20448;-62
2022/01/16 08:09:21;;;;;;;75.93;33.67;;;2.80;1.00;;;;;;5032803;28;20453;-61
2022/01/16 08:11:47;;;;;;;71.57;32.90;;;2.80;1.00;;;;;;5032742;28;20453;-61
2022/01/16 08:14:14;;;;;;;72.00;35.43;;;2.80;1.00;;;;;;5032847;28;20465;-62
2022/01/16 08:16:42;;;;;;;63.03;30.93;;;2.80;1.00;;;;;;5032110;28;20508;-61
2022/01/16 08:19:09;;;;;;;74.63;36.17;;;2.90;1.00;;;;;;5032718;28;20454;-61
2022/01/16 08:21:35;;;;;;;70.37;32.47;;;2.90;1.00;;;;;;5032335;28;20468;-61
2022/01/16 08:24:04;;;;;;;65.80;32.07;;;2.90;1.00;;;;;;5031909;28;20892;-62
2022/01/16 08:26:31;;;;;;;65.43;32.13;;;2.90;1.00;;;;;;5032281;28;21082;-61
2022/01/16 08:28:58;;;;;;;65.83;33.60;;;3.00;1.00;;;;;;5033086;28;20877;-62
2022/01/16 08:31:25;;;;;;;59.17;30.70;;;3.00;1.00;;;;;;5032713;28;20496;-62
2022/01/16 08:33:53;;;;;;;64.87;33.07;;;3.00;1.00;;;;;;5032725;28;20457;-60
2022/01/16 08:36:21;;;;;;;63.90;30.93;;;3.00;1.00;;;;;;5032663;28;20941;-60
2022/01/16 08:38:48;;;;;;;64.07;31.67;;;3.00;1.00;;;;;;5032371;28;20457;-60
2022/01/16 08:41:15;;;;;;;62.93;31.83;;;3.10;1.00;;;;;;5032751;28;20473;-62
2022/01/16 08:43:42;;;;;;;62.37;31.80;;;3.10;1.00;;;;;;5031954;28;20449;-62
2022/01/16 08:46:09;;;;;;;65.50;32.20;;;3.10;1.00;;;;;;5031654;28;20857;-62
2022/01/16 08:48:36;;;;;;;65.93;34.07;;;3.10;1.00;;;;;;5032084;28;20453;-62
2022/01/16 08:51:04;;;;;;;65.93;32.17;;;3.10;1.00;;;;;;5031704;28;20473;-62
2022/01/16 08:53:30;;;;;;;65.83;33.13;;;3.20;1.00;;;;;;5031677;28;20206;-62
2022/01/16 08:55:57;;;;;;;63.33;31.93;;;3.20;1.00;;;;;;5031416;28;20943;-59
2022/01/16 08:58:24;;;;;;;65.97;32.00;;;3.20;1.00;;;;;;5031631;28;20493;-59
2022/01/16 09:00:51;;;;;;;57.57;28.17;;;3.30;1.00;;;;;;5031497;28;21278;-60
2022/01/16 09:03:19;;;;;;;59.67;31.80;;;3.40;1.00;;;;;;5031558;28;20281;-62
2022/01/16 09:05:46;;;;;;;67.53;33.40;;;3.30;1.00;;;;;;5031757;28;20499;-60
2022/01/16 09:08:14;;;;;;;53.57;29.37;;;3.20;1.00;;;;;;5031567;28;20575;-60
2022/01/16 09:10:42;;;;;;;59.97;31.60;;;3.20;1.00;;;;;;5031618;28;20222;-59
2022/01/16 09:13:11;;;;;;;64.57;31.87;;;3.20;1.00;;;;;;5031138;28;20297;-60
2022/01/16 09:15:38;;;;;;;56.93;31.60;;;3.30;1.00;;;;;;5031878;28;20820;-61
2022/01/16 09:18:05;;;;;;;54.93;29.53;;;3.30;1.00;;;;;;5031625;28;20230;-60
2022/01/16 09:20:32;;;;;;;59.30;30.87;;;3.30;1.00;;;;;;5031375;28;20990;-59
2022/01/16 09:22:59;;;;;;;60.03;31.10;;;3.40;1.00;;;;;;5031425;28;20190;-61
2022/01/16 09:25:27;;;;;;;60.10;31.10;;;3.40;1.00;;;;;;5031549;28;20209;-61
2022/01/16 09:27:54;;;;;;;54.80;29.93;;;3.50;1.00;;;;;;5031465;28;20452;-61
2022/01/16 09:30:24;;;;;;;57.07;30.13;;;3.40;1.00;;;;;;5031241;28;20230;-61
2022/01/16 09:32:51;;;;;;;59.10;31.17;;;3.40;1.00;;;;;;5031245;28;20607;-61
2022/01/16 09:35:19;;;;;;;60.87;29.63;;;3.50;1.00;;;;;;5032369;28;20253;-61
2022/01/16 09:37:46;;;;;;;60.80;30.97;;;3.50;1.00;;;;;;5035291;28;20233;-60
2022/01/16 09:40:14;;;;;;;58.17;30.13;;;3.50;1.00;;;;;;5035076;28;20231;-61
2022/01/16 09:42:43;;;;;;;52.53;26.83;;;3.50;1.00;;;;;;5035329;28;20898;-61
2022/01/16 09:45:13;;;;;;;55.03;28.63;;;3.60;1.00;;;;;;5035307;28;20244;-61
2022/01/16 09:47:40;;;;;;;55.77;28.20;;;3.60;1.00;;;;;;5035237;28;20484;-61
2022/01/16 09:50:08;;;;;;;55.83;29.80;;;3.60;1.00;;;;;;5035149;28;20230;-61
2022/01/16 09:52:36;;;;;;;46.13;25.67;;;3.50;1.00;;;;;;5035379;28;20502;-60
2022/01/16 09:55:04;;;;;;;58.13;29.63;;;3.60;1.00;;;;;;5035655;28;20211;-61
2022/01/16 09:57:31;;;;;;;51.50;27.17;;;3.60;1.00;;;;;;5035393;28;20581;-61
2022/01/16 09:59:59;;;;;;;51.60;28.77;;;3.70;1.00;;;;;;5035445;28;20241;-61
2022/01/16 10:02:26;;;;;;;52.67;27.10;;;3.70;1.00;;;;;;5032273;28;20457;-60
2022/01/16 10:04:53;;;;;;;49.47;27.10;;;3.60;1.00;;;;;;5034648;28;20618;-61
2022/01/16 10:07:20;;;;;;;50.70;26.47;;;3.70;1.00;;;;;;5034313;28;20298;-66
2022/01/16 10:10:07;;;;;;;48.40;27.33;;;3.70;1.00;;;;;;5034813;28;20234;-61
2022/01/16 10:12:35;;;;;;;53.67;29.53;;;3.80;1.00;;;;;;5034762;28;20294;-61
2022/01/16 10:15:19;;;;;;;49.90;28.33;;;3.80;1.00;;;;;;5034359;28;20314;-62
2022/01/16 10:17:46;;;;;;;53.80;28.70;;;3.80;1.00;;;;;;5034108;28;20226;-62
2022/01/16 10:20:16;;;;;;;49.03;25.93;;;3.90;1.00;;;;;;5034421;28;20231;-62
2022/01/16 10:22:47;;;;;;;48.93;26.57;;;3.90;1.00;;;;;;5034399;28;20215;-61
2022/01/16 10:25:16;;;;;;;52.37;28.27;;;3.90;1.00;;;;;;5034202;28;20220;-62
2022/01/16 10:27:45;;;;;;;46.57;26.23;;;4.00;1.00;;;;;;5034607;28;20679;-62
2022/01/16 10:30:14;;;;;;;47.50;27.13;;;4.10;1.00;;;;;;5034203;28;20288;-63
2022/01/16 10:32:44;;;;;;;47.87;25.27;;;4.10;1.00;;;;;;5034375;28;20208;-62
2022/01/16 10:35:14;;;;;;;48.67;27.13;;;4.20;1.00;;;;;;5034442;28;20205;-62
2022/01/16 10:37:43;;;;;;;47.27;27.03;;;4.20;1.00;;;;;;5033833;28;20699;-63
2022/01/16 10:40:14;;;;;;;45.60;25.37;;;4.20;1.00;;;;;;5034213;28;20227;-62
2022/01/16 10:42:41;;;;;;;44.10;22.53;;;4.30;1.00;;;;;;5033714;28;20215;-63
2022/01/16 10:45:10;;;;;;;52.20;26.67;;;4.30;1.00;;;;;;5034739;28;20215;-62
2022/01/16 10:47:39;;;;;;;51.37;26.23;;;4.40;1.00;;;;;;5033369;28;20228;-62
2022/01/16 10:50:18;;;;;;;51.03;25.13;;;4.30;1.00;;;;;;5033865;28;20247;-61
2022/01/16 10:52:58;;;;;;;47.33;25.43;;;4.30;1.00;;;;;;5033721;28;20209;-62
2022/01/16 10:55:33;;;;;;;47.23;25.00;;;4.30;1.00;;;;;;5033425;28;20213;-61
2022/01/16 10:58:03;;;;;;;49.80;25.33;;;4.30;1.00;;;;;;5033902;28;20260;-61
2022/01/16 11:00:30;;;;;;;47.00;24.00;;;4.30;1.00;;;;;;5033554;28;20231;-59
2022/01/16 11:03:00;;;;;;;41.70;22.80;;;4.30;1.00;;;;;;5033393;28;20243;-61
2022/01/16 11:05:29;;;;;;;39.97;21.83;;;4.40;1.00;;;;;;5033293;28;20294;-61
2022/01/16 11:07:58;;;;;;;44.83;21.83;;;4.40;1.00;;;;;;5033694;28;20600;-61
2022/01/16 11:10:28;;;;;;;41.50;22.33;;;4.40;1.00;;;;;;5033615;28;20232;-61
2022/01/16 11:12:57;;;;;;;42.23;23.07;;;4.40;1.00;;;;;;5033621;28;20706;-61
2022/01/16 11:15:24;;;;;;;42.30;23.10;;;4.50;1.00;;;;;;5033772;28;20732;-61
2022/01/16 11:17:51;;;;;;;38.77;22.73;;;4.60;1.00;;;;;;5033846;28;20228;-62
2022/01/16 11:20:26;;;;;;;44.23;22.80;;;4.60;1.00;;;;;;5033855;28;20274;-62
2022/01/16 11:23:05;;;;;;;43.97;22.20;;;4.60;1.00;;;;;;5033252;28;20214;-61
2022/01/16 11:25:38;;;;;;;43.67;23.10;;;4.60;1.00;;;;;;5033510;28;20584;-62
2022/01/16 11:28:08;;;;;;;42.63;22.00;;;4.60;1.00;;;;;;5032899;28;20211;-65
2022/01/16 11:30:36;;;;;;;41.07;20.73;;;4.60;1.00;;;;;;5032894;28;20762;-67
2022/01/16 11:33:04;;;;;;;42.53;22.93;;;4.70;1.00;;;;;;5033088;28;20208;-64
2022/01/16 11:35:32;;;;;;;34.63;17.23;;;4.70;1.00;;;;;;5033204;28;20235;-62
2022/01/16 11:38:01;;;;;;;41.90;22.10;;;4.70;1.00;;;;;;5032833;28;20230;-61
2022/01/16 11:40:38;;;;;;;44.70;23.57;;;4.60;1.00;;;;;;5032932;28;20240;-61
2022/01/16 11:43:20;;;;;;;44.10;23.13;;;4.60;1.00;;;;;;5032470;28;20212;-61
2022/01/16 11:45:48;;;;;;;44.63;22.73;;;4.70;1.00;;;;;;5033096;28;20217;-62
2022/01/16 11:48:19;;;;;;;42.00;22.00;;;4.70;1.00;;;;;;5032810;28;20209;-62
2022/01/16 11:50:46;;;;;;;44.23;24.37;;;4.70;1.00;;;;;;5032835;28;20237;-62
2022/01/16 11:53:52;;;;;;;54.13;25.50;;;4.70;1.00;;;;;;5032453;28;20209;-62
2022/01/16 11:56:52;;;;;;;45.33;24.50;;;4.80;1.00;;;;;;5032813;28;20632;-61
2022/01/16 11:59:21;;;;;;;45.67;23.47;;;5.00;1.00;;;;;;5031481;28;20240;-67
2022/01/16 12:01:50;;;;;;;43.97;22.80;;;5.00;1.00;;;;;;5032593;28;20264;-61
2022/01/16 12:04:54;;;;;;;47.27;24.50;;;5.10;1.00;;;;;;5033914;28;20205;-61
2022/01/16 12:07:46;;;;;;;53.93;26.07;;;5.10;1.00;;;;;;5032511;28;20741;-63
2022/01/16 12:10:47;;;;;;;46.63;24.50;;;5.10;1.00;;;;;;5031971;28;20792;-59
2022/01/16 12:13:54;;;;;;;55.37;25.30;;;5.10;1.00;;;;;;5032536;28;20248;-61
2022/01/16 12:16:43;;;;;;;46.17;23.60;;;5.20;1.00;;;;;;5028860;28;20210;-61
2022/01/16 12:19:33;;;;;;;47.33;22.20;;;5.30;1.00;;;;;;5029624;28;20257;-59
2022/01/16 12:22:00;;;;;;;47.33;24.33;;;5.30;1.00;;;;;;5033075;28;20641;-59
2022/01/16 12:24:37;;;;;;;46.07;25.00;;;5.20;1.00;;;;;;5033132;28;20205;-60
2022/01/16 12:27:25;;;;;;;49.83;24.30;;;5.20;1.00;;;;;;5032203;28;20209;-62
2022/01/16 12:30:16;;;;;;;47.53;23.63;;;5.30;1.00;;;;;;5032376;28;20225;-60
2022/01/16 12:32:51;;;;;;;50.33;23.03;;;5.20;1.00;;;;;;5031923;28;20228;-61
2022/01/16 12:36:08;;;;;;;51.00;24.10;;;5.30;1.00;;;;;;5032336;28;20213;-61
2022/01/16 12:38:44;;;;;;;48.00;23.00;;;5.30;1.00;;;;;;5031566;28;20323;-61
2022/01/16 12:41:14;;;;;;;43.87;20.43;;;5.30;1.00;;;;;;5031943;28;20225;-61
2022/01/16 12:43:49;;;;;;;43.13;22.17;;;5.30;1.00;;;;;;5032110;28;20222;-58
2022/01/16 12:46:18;;;;;;;53.67;24.10;;;5.30;1.00;;;;;;5031871;28;20274;-61
2022/01/16 12:48:46;;;;;;;51.83;23.00;;;5.30;1.00;;;;;;5032019;28;20220;-61
2022/01/16 12:51:15;;;;;;;52.97;25.17;;;5.20;1.00;;;;;;5032005;28;20237;-61
2022/01/16 12:53:43;;;;;;;50.03;22.77;;;5.20;1.00;;;;;;5030096;28;20213;-61
2022/01/16 12:56:23;;;;;;;49.30;24.30;;;5.10;1.00;;;;;;5029804;28;20649;-61
2022/01/16 12:58:52;;;;;;;50.03;25.17;;;5.20;1.00;;;;;;5031384;28;20236;-62
2022/01/16 13:01:19;;;;;;;41.53;19.57;;;5.10;1.00;;;;;;5031413;28;20650;-60
2022/01/16 13:03:47;;;;;;;47.93;21.60;;;5.00;1.00;;;;;;5031723;28;20335;-66
2022/01/16 13:06:23;;;;;;;48.27;23.23;;;4.90;1.00;;;;;;5031266;28;20206;-67
2022/01/16 13:09:02;;;;;;;44.73;23.37;;;4.90;1.00;;;;;;5031750;28;20200;-65
2022/01/16 13:11:31;;;;;;;46.07;21.70;;;5.00;1.00;;;;;;5031138;28;20307;-61
2022/01/16 13:14:00;;;;;;;53.80;24.90;;;4.90;1.00;;;;;;5031422;28;20223;-62
2022/01/16 13:16:29;;;;;;;51.60;23.10;;;4.90;1.00;;;;;;5030528;28;20209;-62
2022/01/16 13:19:01;;;;;;;46.47;22.87;;;4.90;1.00;;;;;;5031272;28;20228;-66
2022/01/16 13:21:34;;;;;;;42.33;19.47;;;4.90;1.00;;;;;;5031497;28;20260;-64
2022/01/16 13:24:01;;;;;;;45.47;21.60;;;4.90;1.00;;;;;;5031362;28;20263;-63
2022/01/16 13:26:28;;;;;;;48.03;21.33;;;4.90;1.00;;;;;;5030879;28;20220;-63
2022/01/16 13:29:02;;;;;;;43.80;21.37;;;4.80;1.00;;;;;;5030978;28;20217;-63
2022/01/16 13:31:28;;;;;;;45.90;22.20;;;4.70;1.00;;;;;;5031127;28;20241;-63